Dati Storici

Data ora Umidita' aria (%) Temperatura aria (°C) Rad globale (W/m²) Gonioanemometro (°) Tacoanemometro (m/s) Pioggia (mm)
06-11-2012 13:50 50.7 % 16.307 452.564 307.015 0.804 0
06-11-2012 13:40 50.4 % 16.488 460.432 245.815 0.609 0
06-11-2012 13:30 49.4 % 16.766 469.142 358.067 1.173 0
06-11-2012 13:20 49.3 % 16.583 476.991 336.308 2.108 0
06-11-2012 13:10 49.1 % 16.494 475.665 302.883 0.988 0
06-11-2012 13:00 48.9 % 16.207 476.991 344.154 0.641 0
06-11-2012 12:50 48.8 % 16.005 479.455 282.419 0.567 0
06-11-2012 12:40 48 % 15.636 484.895 24.498 1.365 0
06-11-2012 12:30 48.7 % 15.28 486.088 209.187 0.613 0
06-11-2012 12:20 48.2 % 15.388 484.153 329.45 1.888 0
06-11-2012 12:10 47 % 15.554 480.731 293.528 1.336 0
06-11-2012 12:00 47.4 % 15.495 476.119 69.91 1.12 0
06-11-2012 11:50 46.9 % 15.636 465.487 37.436 1.53 0
06-11-2012 11:40 47 % 15.545 467.975 29.745 1.006 0
06-11-2012 11:30 49.1 % 15.05 447.32 3.25 0.499 0
06-11-2012 11:20 49.7 % 14.232 435.572 99.862 0.255 0
06-11-2012 11:10 51 % 14.518 425.803 293.254 0.329 0
06-11-2012 11:00 53.2 % 13.891 401.958 63.214 0.674 0
06-11-2012 10:50 55.7 % 13.246 386.262 322.845 1.13 0
06-11-2012 10:40 58.5 % 12.512 366.351 321.19 1.836 0

I dati sono presentati in modo automatico a scopo informativo. In seguito a verifica i dati possono subire modifiche o essere invalidati e non riportati negli archivi definitivi.